Time;durP1;ratioP1;P1;durP2;ratioP2;P2;SDS_P1;SDS_P2;PMS_P1;PMS_P2;Temp;Humidity;BMP_temperature;BMP_pressure;BME280_temperature;BME280_humidity;BME280_pressure;Samples;Min_cycle;Max_cycle;Signal;HPM_P1;HPM_P2
2023/12/08 00:00:54;;;;;;;22.35;17.23;;;2.30;99.90;;;;;;4939621;29;20414;-94
2023/12/08 00:03:20;;;;;;;23.90;17.50;;;2.40;99.90;;;;;;4940848;29;20885;-94
2023/12/08 00:06:09;;;;;;;22.93;17.50;;;2.60;99.90;;;;;;4923665;29;20422;-92
2023/12/08 00:08:35;;;;;;;23.42;17.00;;;2.40;99.90;;;;;;4941525;29;20437;-93
2023/12/08 00:11:01;;;;;;;22.58;16.83;;;2.40;99.90;;;;;;4941786;29;20410;-92
2023/12/08 00:13:50;;;;;;;;;;;;;;;;;;;;;
2023/12/08 00:16:22;;;;;;;24.63;16.90;;;2.40;99.90;;;;;;4945521;29;20425;-93
2023/12/08 00:18:53;;;;;;;21.05;16.55;;;2.40;99.90;;;;;;4947812;28;20471;-93
2023/12/08 00:21:19;;;;;;;21.67;16.48;;;2.50;99.90;;;;;;4959814;28;20411;-94
2023/12/08 00:23:44;;;;;;;21.55;16.65;;;2.50;99.90;;;;;;4960338;28;20428;-93
2023/12/08 00:26:14;;;;;;;20.90;16.27;;;2.50;99.90;;;;;;4941334;29;20414;-93
2023/12/08 00:28:45;;;;;;;20.80;16.02;;;2.90;99.90;;;;;;4940240;29;20436;-94
2023/12/08 00:31:15;;;;;;;19.00;14.93;;;2.40;99.90;;;;;;4941602;29;20425;-94
2023/12/08 00:33:41;;;;;;;19.60;16.00;;;2.60;99.90;;;;;;4929465;28;20443;-93
2023/12/08 00:36:17;;;;;;;19.33;15.20;;;2.40;99.90;;;;;;4944932;28;20768;-92
2023/12/08 00:38:44;;;;;;;19.80;15.27;;;2.40;99.90;;;;;;4958929;28;20420;-93
2023/12/08 00:41:10;;;;;;;20.08;15.52;;;2.40;99.90;;;;;;4961850;28;20408;-94
2023/12/08 00:43:39;;;;;;;17.95;15.07;;;2.30;99.90;;;;;;4960232;28;20418;-94
2023/12/08 00:46:09;;;;;;;19.08;14.50;;;2.40;99.90;;;;;;4943199;28;21027;-93
2023/12/08 00:48:44;;;;;;;17.70;14.65;;;2.40;99.90;;;;;;4959120;28;20443;-94
2023/12/08 00:51:13;;;;;;;20.65;15.02;;;2.50;99.90;;;;;;4928710;28;20467;-93
2023/12/08 00:53:45;;;;;;;20.17;14.98;;;2.40;99.90;;;;;;4959721;28;20479;-94
2023/12/08 00:56:13;;;;;;;18.83;14.80;;;2.50;99.90;;;;;;4977941;28;20491;-94
2023/12/08 00:58:39;;;;;;;19.15;14.40;;;2.60;99.90;;;;;;4977854;28;20429;-94
2023/12/08 01:01:05;;;;;;;20.07;15.67;;;2.40;99.90;;;;;;4980664;28;20503;-93
2023/12/08 01:03:33;;;;;;;19.27;15.20;;;2.40;99.90;;;;;;4975065;28;20440;-95
2023/12/08 01:06:08;;;;;;;19.90;14.32;;;2.40;99.90;;;;;;4945632;28;20549;-93
2023/12/08 01:08:36;;;;;;;18.92;14.35;;;2.30;99.90;;;;;;4958740;28;20469;-94
2023/12/08 01:11:28;;;;;;;19.42;14.80;;;2.40;99.90;;;;;;4959092;28;20423;-94
2023/12/08 01:13:54;;;;;;;19.20;15.80;;;2.40;99.90;;;;;;4941580;28;20412;-92
2023/12/08 01:16:19;;;;;;;19.43;15.17;;;2.40;99.90;;;;;;4939037;29;20428;-91
2023/12/08 01:18:48;;;;;;;20.13;15.30;;;2.30;99.90;;;;;;4937205;29;20422;-94
2023/12/08 01:21:20;;;;;;;18.88;15.32;;;2.40;99.90;;;;;;4937257;29;20425;-94
2023/12/08 01:23:45;;;;;;;20.30;15.88;;;2.30;99.90;;;;;;4937810;29;20414;-94
2023/12/08 01:26:11;;;;;;;20.20;16.08;;;2.40;99.90;;;;;;4950689;28;20423;-92
2023/12/08 01:28:37;;;;;;;20.45;15.70;;;2.40;99.90;;;;;;4955269;28;21002;-93
2023/12/08 01:31:03;;;;;;;21.20;15.80;;;2.30;99.90;;;;;;4971934;28;20412;-93
2023/12/08 01:33:37;;;;;;;19.30;15.25;;;2.40;99.90;;;;;;4956528;28;20411;-94
2023/12/08 01:36:10;;;;;;;19.83;15.75;;;2.60;99.90;;;;;;4973188;28;20478;-93
2023/12/08 01:38:36;;;;;;;19.45;16.17;;;2.40;99.90;;;;;;4953625;28;20511;-93
2023/12/08 01:41:02;;;;;;;20.85;16.10;;;2.50;99.90;;;;;;4955835;28;20463;-94
2023/12/08 01:43:28;;;;;;;20.83;15.98;;;2.40;99.90;;;;;;4945345;29;20406;-93
2023/12/08 01:45:58;;;;;;;21.97;16.17;;;2.40;99.90;;;;;;4938136;29;20432;-93
2023/12/08 01:48:43;;;;;;;21.23;16.77;;;2.40;99.90;;;;;;4937522;29;20478;-93
2023/12/08 01:51:12;;;;;;;21.73;17.35;;;2.40;99.90;;;;;;4922074;29;20418;-93
2023/12/08 01:53:39;;;;;;;21.30;16.60;;;2.30;99.90;;;;;;4934842;29;20794;-92
2023/12/08 01:56:09;;;;;;;18.85;16.15;;;2.30;99.90;;;;;;4936576;29;20409;-92
2023/12/08 01:58:35;;;;;;;21.05;17.15;;;2.30;99.90;;;;;;4936331;29;20481;-93
2023/12/08 02:01:27;;;;;;;21.55;16.80;;;2.30;99.90;;;;;;4942634;28;20459;-94
2023/12/08 02:03:52;;;;;;;20.88;16.83;;;2.40;99.90;;;;;;4958803;28;20450;-94
2023/12/08 02:06:18;;;;;;;19.73;16.27;;;2.30;99.90;;;;;;4958112;28;20416;-92
2023/12/08 02:08:47;;;;;;;21.13;17.10;;;2.40;99.90;;;;;;4937760;29;20430;-90
2023/12/08 02:11:16;;;;;;;21.05;16.52;;;2.50;99.90;;;;;;4952591;28;20457;-92
2023/12/08 02:13:46;;;;;;;19.77;16.47;;;2.40;99.90;;;;;;4938923;29;20414;-94
2023/12/08 02:16:18;;;;;;;22.30;16.63;;;2.30;99.90;;;;;;4937762;29;20461;-92
2023/12/08 02:18:44;;;;;;;20.75;16.80;;;2.30;99.90;;;;;;4940318;28;20422;-94
2023/12/08 02:21:13;;;;;;;22.40;17.23;;;2.30;99.90;;;;;;4953141;28;21023;-94
2023/12/08 02:23:51;;;;;;;21.85;17.55;;;2.50;99.90;;;;;;4969559;28;20415;-94
2023/12/08 02:26:19;;;;;;;21.77;17.40;;;2.40;99.90;;;;;;4923325;28;20431;-94
2023/12/08 02:28:48;;;;;;;21.23;17.10;;;2.40;99.90;;;;;;4955489;28;21014;-92
2023/12/08 02:31:19;;;;;;;21.63;17.00;;;2.40;99.90;;;;;;4951499;28;20600;-93
2023/12/08 02:33:51;;;;;;;23.60;17.42;;;2.30;99.90;;;;;;4953558;28;20416;-94
2023/12/08 02:36:20;;;;;;;21.20;17.67;;;2.50;99.90;;;;;;4953965;28;20417;-94
2023/12/08 02:38:51;;;;;;;21.83;18.38;;;2.30;99.90;;;;;;4954427;28;20411;-92
2023/12/08 02:41:22;;;;;;;21.57;17.70;;;2.30;99.90;;;;;;4953481;28;20495;-94
2023/12/08 02:43:48;;;;;;;22.35;17.70;;;2.30;99.90;;;;;;4952864;28;20455;-95
2023/12/08 02:46:13;;;;;;;21.77;18.00;;;2.30;99.90;;;;;;4950217;29;20414;-93
2023/12/08 02:48:39;;;;;;;22.00;17.77;;;2.50;99.90;;;;;;4934444;29;20445;-93
2023/12/08 02:51:05;;;;;;;23.10;18.38;;;2.30;99.90;;;;;;4934772;29;20418;-92
2023/12/08 02:53:30;;;;;;;23.60;18.13;;;2.30;99.90;;;;;;4933802;29;20441;-94
2023/12/08 02:55:58;;;;;;;22.80;18.02;;;2.30;99.90;;;;;;4938227;28;20893;-93
2023/12/08 02:58:24;;;;;;;23.65;18.75;;;2.50;99.90;;;;;;4946790;29;20414;-94
2023/12/08 03:00:57;;;;;;;23.27;18.42;;;2.40;99.90;;;;;;4936216;29;20449;-94
2023/12/08 03:03:23;;;;;;;23.88;18.50;;;2.30;99.90;;;;;;4950788;28;20404;-93
2023/12/08 03:06:01;;;;;;;23.55;18.33;;;2.20;99.90;;;;;;4947313;29;20521;-93
2023/12/08 03:08:27;;;;;;;21.15;17.55;;;2.20;99.90;;;;;;4958708;28;20410;-93
2023/12/08 03:10:52;;;;;;;21.80;18.15;;;2.30;99.90;;;;;;4939434;28;20486;-93
2023/12/08 03:13:18;;;;;;;23.25;18.23;;;2.30;99.90;;;;;;4955949;28;20435;-93
2023/12/08 03:15:47;;;;;;;23.00;18.50;;;2.30;99.90;;;;;;4971291;28;20412;-93
2023/12/08 03:18:13;;;;;;;22.90;18.98;;;2.50;99.90;;;;;;4957214;28;20872;-93
2023/12/08 03:21:32;;;;;;;23.58;18.83;;;2.40;99.90;;;;;;4953513;29;20461;-93
2023/12/08 03:24:00;;;;;;;21.92;18.38;;;2.30;99.90;;;;;;4909033;29;20418;-92
2023/12/08 03:26:26;;;;;;;22.73;18.23;;;2.40;99.90;;;;;;4938548;29;20414;-93
2023/12/08 03:28:54;;;;;;;23.77;19.30;;;2.20;99.90;;;;;;4938995;29;20445;-96
2023/12/08 03:31:29;;;;;;;25.77;19.23;;;2.20;99.90;;;;;;4940786;29;21034;-95
2023/12/08 03:33:55;;;;;;;23.73;18.75;;;2.30;99.90;;;;;;4938935;29;20422;-95
2023/12/08 03:36:24;;;;;;;22.40;18.73;;;2.30;99.90;;;;;;4941956;29;20500;-95
2023/12/08 03:38:50;;;;;;;23.35;18.63;;;2.30;99.90;;;;;;4942965;29;20448;-94
2023/12/08 03:41:16;;;;;;;23.35;18.73;;;2.30;99.90;;;;;;4927847;29;20929;-94
2023/12/08 03:43:41;;;;;;;23.27;19.10;;;2.30;99.90;;;;;;4956589;29;20418;-94
2023/12/08 03:46:27;;;;;;;23.20;19.42;;;2.30;99.90;;;;;;4940498;29;20445;-94
2023/12/08 03:48:53;;;;;;;25.52;19.30;;;2.30;99.90;;;;;;4942659;29;20859;-93
2023/12/08 03:51:24;;;;;;;27.50;19.80;;;2.30;99.90;;;;;;4927994;29;20413;-94
2023/12/08 03:53:58;;;;;;;24.17;20.02;;;2.30;99.90;;;;;;4940613;29;20426;-93
2023/12/08 03:56:24;;;;;;;25.35;20.20;;;2.20;99.90;;;;;;4947657;29;20716;-94
2023/12/08 03:58:57;;;;;;;30.35;21.90;;;2.20;99.90;;;;;;4929695;29;20414;-95
2023/12/08 04:01:23;;;;;;;28.90;21.97;;;2.20;99.90;;;;;;4932408;29;20426;-95
2023/12/08 04:03:57;;;;;;;28.27;21.67;;;2.20;99.90;;;;;;4943998;29;20525;-94
2023/12/08 04:06:23;;;;;;;32.08;22.77;;;2.10;99.90;;;;;;4947733;29;20823;-94
2023/12/08 04:08:52;;;;;;;31.65;22.95;;;2.10;99.90;;;;;;4956779;28;20455;-94
2023/12/08 04:11:21;;;;;;;31.83;23.60;;;2.30;99.90;;;;;;4960971;28;20428;-94
2023/12/08 04:13:46;;;;;;;34.08;24.33;;;2.00;99.90;;;;;;4974616;28;20869;-94
2023/12/08 04:16:14;;;;;;;36.00;25.10;;;2.00;99.90;;;;;;4958597;28;20453;-94
2023/12/08 04:18:39;;;;;;;36.43;24.67;;;2.00;99.90;;;;;;4961353;28;20384;-92
2023/12/08 04:21:05;;;;;;;35.73;24.80;;;1.90;99.90;;;;;;4955638;28;20419;-89
2023/12/08 04:23:31;;;;;;;40.97;26.53;;;2.10;99.90;;;;;;4971176;28;20596;-90
2023/12/08 04:25:56;;;;;;;37.97;26.38;;;1.90;99.90;;;;;;4957136;28;20930;-91
2023/12/08 04:28:22;;;;;;;42.15;27.42;;;1.80;99.90;;;;;;4954142;28;20494;-90
2023/12/08 04:30:48;;;;;;;44.45;27.63;;;1.80;99.90;;;;;;4956762;28;20411;-91
2023/12/08 04:33:13;;;;;;;47.03;29.53;;;1.70;99.90;;;;;;4941093;28;20406;-88
2023/12/08 04:35:39;;;;;;;46.47;28.63;;;1.70;99.90;;;;;;4933981;29;20414;-89
2023/12/08 04:38:05;;;;;;;48.22;29.67;;;1.60;99.90;;;;;;4951014;29;20505;-92
2023/12/08 04:40:30;;;;;;;47.00;29.13;;;1.70;99.90;;;;;;4935225;29;20422;-88
2023/12/08 04:42:56;;;;;;;48.37;29.57;;;1.70;99.90;;;;;;4935605;29;20418;-94
2023/12/08 04:45:21;;;;;;;51.07;30.07;;;1.90;99.90;;;;;;4934929;29;20508;-91
2023/12/08 04:47:47;;;;;;;52.10;30.00;;;1.70;99.90;;;;;;4936069;29;20817;-91
2023/12/08 04:50:13;;;;;;;53.05;30.30;;;1.60;99.90;;;;;;4934272;29;20485;-90
2023/12/08 04:52:38;;;;;;;55.00;30.90;;;1.70;99.90;;;;;;4957430;28;20521;-91
2023/12/08 04:55:05;;;;;;;53.70;31.15;;;1.80;99.90;;;;;;4942442;28;20413;-91
2023/12/08 04:57:32;;;;;;;57.90;32.22;;;1.70;99.90;;;;;;4946111;28;20841;-91
2023/12/08 04:59:58;;;;;;;57.88;32.40;;;1.70;99.90;;;;;;4935453;28;20770;-90
2023/12/08 05:02:24;;;;;;;53.67;31.38;;;1.60;99.90;;;;;;4941914;28;20543;-92
2023/12/08 05:04:49;;;;;;;67.43;33.88;;;1.90;99.90;;;;;;4935974;29;20477;-88
2023/12/08 05:07:15;;;;;;;63.33;33.43;;;1.60;99.90;;;;;;4933574;29;20453;-89
2023/12/08 05:09:41;;;;;;;69.47;35.03;;;1.60;99.90;;;;;;4950507;29;20469;-92
2023/12/08 05:12:06;;;;;;;61.93;32.80;;;1.60;99.90;;;;;;4933620;29;20429;-91
2023/12/08 05:14:32;;;;;;;66.80;33.85;;;1.60;99.90;;;;;;4950129;29;20463;-88
2023/12/08 05:16:58;;;;;;;62.58;33.00;;;1.60;99.90;;;;;;4933192;29;20421;-92
2023/12/08 05:19:23;;;;;;;66.93;34.43;;;1.60;99.90;;;;;;4934579;29;20802;-92
2023/12/08 05:21:49;;;;;;;72.33;35.37;;;1.60;99.90;;;;;;4933981;29;20488;-88
2023/12/08 05:24:14;;;;;;;71.67;34.63;;;1.60;99.90;;;;;;4933540;29;20521;-89
2023/12/08 05:26:40;;;;;;;72.10;33.97;;;1.60;99.90;;;;;;4933907;29;20429;-87
2023/12/08 05:29:06;;;;;;;66.30;33.70;;;1.60;99.90;;;;;;4948972;29;20950;-87
2023/12/08 05:31:31;;;;;;;75.77;35.87;;;1.60;99.90;;;;;;4933855;29;20516;-87
2023/12/08 05:33:57;;;;;;;77.28;35.75;;;1.50;99.90;;;;;;4933013;29;20425;-88
2023/12/08 05:36:22;;;;;;;68.47;33.83;;;1.50;99.90;;;;;;4933202;29;21278;-89
2023/12/08 05:38:48;;;;;;;69.10;34.37;;;1.50;99.90;;;;;;4932917;29;21104;-91
2023/12/08 05:41:14;;;;;;;74.93;34.80;;;1.50;99.90;;;;;;4950677;28;21074;-89
2023/12/08 05:43:40;;;;;;;70.63;33.17;;;1.80;99.90;;;;;;4968780;28;20431;-89
2023/12/08 05:46:05;;;;;;;74.07;34.87;;;1.70;99.90;;;;;;4949099;28;20432;-87
2023/12/08 05:48:31;;;;;;;83.03;36.40;;;1.80;99.90;;;;;;4934572;29;20422;-89
2023/12/08 05:50:57;;;;;;;75.30;34.83;;;1.30;99.90;;;;;;4932565;29;20410;-90
2023/12/08 05:53:22;;;;;;;73.03;34.25;;;1.50;99.90;;;;;;4933048;29;20406;-89
2023/12/08 05:55:48;;;;;;;85.88;35.78;;;1.50;99.90;;;;;;4954556;28;20791;-90
2023/12/08 05:58:14;;;;;;;75.43;35.85;;;1.50;99.90;;;;;;4952483;28;20412;-91
2023/12/08 06:00:41;;;;;;;75.57;34.40;;;1.50;99.90;;;;;;4940208;29;20430;-90
2023/12/08 06:03:06;;;;;;;72.80;34.13;;;1.50;99.90;;;;;;4932830;29;20422;-89
2023/12/08 06:05:32;;;;;;;70.93;34.43;;;1.60;99.90;;;;;;4933297;29;20429;-89
2023/12/08 06:07:58;;;;;;;79.30;35.17;;;1.40;99.90;;;;;;4932572;29;20531;-88
2023/12/08 06:10:24;;;;;;;79.78;34.92;;;1.50;99.90;;;;;;4933132;29;20441;-90
2023/12/08 06:12:49;;;;;;;76.15;35.55;;;1.40;99.90;;;;;;4932056;29;20417;-89
2023/12/08 06:15:15;;;;;;;75.22;35.20;;;1.60;99.90;;;;;;4933409;29;20437;-90
2023/12/08 06:17:40;;;;;;;77.80;35.05;;;1.60;99.90;;;;;;4933066;29;20418;-88
2023/12/08 06:20:10;;;;;;;80.07;35.63;;;1.50;99.90;;;;;;4932985;29;20516;-90
2023/12/08 06:22:38;;;;;;;72.45;33.40;;;1.50;99.90;;;;;;4933672;29;20406;-92
2023/12/08 06:25:05;;;;;;;71.03;34.35;;;1.50;99.90;;;;;;4948363;29;20986;-93
2023/12/08 06:27:31;;;;;;;77.15;34.90;;;1.40;99.90;;;;;;4942551;28;20420;-91
2023/12/08 06:29:56;;;;;;;68.00;33.10;;;1.70;99.90;;;;;;4952339;28;20439;-89
2023/12/08 06:32:22;;;;;;;72.13;34.73;;;1.50;99.90;;;;;;4951931;28;20407;-90
2023/12/08 06:34:48;;;;;;;72.38;34.30;;;1.50;99.90;;;;;;4951560;28;20407;-92
2023/12/08 06:37:13;;;;;;;70.15;34.13;;;1.40;99.90;;;;;;4952436;28;20424;-92
2023/12/08 06:39:39;;;;;;;69.30;33.78;;;1.40;99.90;;;;;;4968088;28;20444;-93
2023/12/08 06:42:06;;;;;;;74.03;33.55;;;1.40;99.90;;;;;;4951778;28;20924;-90
2023/12/08 06:44:31;;;;;;;73.57;34.60;;;1.50;99.90;;;;;;4951961;28;20900;-93
2023/12/08 06:46:58;;;;;;;74.00;35.07;;;1.40;99.90;;;;;;4951485;28;20415;-91
2023/12/08 06:49:24;;;;;;;77.68;35.95;;;1.50;99.90;;;;;;4951987;28;20428;-91
2023/12/08 06:51:50;;;;;;;77.32;35.85;;;1.40;99.90;;;;;;4967729;28;20416;-92
2023/12/08 06:54:15;;;;;;;69.90;34.63;;;1.40;99.90;;;;;;4951990;28;20510;-93
2023/12/08 06:56:42;;;;;;;73.22;35.85;;;1.40;99.90;;;;;;4952867;28;20412;-88
2023/12/08 06:59:08;;;;;;;79.77;36.90;;;1.40;99.90;;;;;;4958100;28;20389;-90
2023/12/08 07:01:34;;;;;;;78.63;37.33;;;1.40;99.90;;;;;;4974581;28;20503;-89
2023/12/08 07:04:03;;;;;;;74.85;36.55;;;1.50;99.90;;;;;;4957684;28;20430;-90
2023/12/08 07:06:32;;;;;;;77.43;37.28;;;1.50;99.90;;;;;;4946342;29;20504;-89
2023/12/08 07:08:59;;;;;;;78.22;37.03;;;1.40;99.90;;;;;;4938663;29;20433;-89
2023/12/08 07:11:25;;;;;;;73.68;36.50;;;1.50;99.90;;;;;;4938313;29;20453;-92
2023/12/08 07:13:51;;;;;;;78.68;37.58;;;1.70;99.90;;;;;;4938866;28;20426;-89
2023/12/08 07:16:16;;;;;;;74.25;36.35;;;1.50;99.90;;;;;;4951782;28;20839;-89
2023/12/08 07:18:42;;;;;;;70.30;35.50;;;1.70;99.90;;;;;;4958365;28;20412;-90
2023/12/08 07:21:08;;;;;;;73.20;36.10;;;1.40;99.90;;;;;;4957737;28;20487;-92
2023/12/08 07:23:34;;;;;;;73.27;35.50;;;1.60;99.90;;;;;;4958534;28;20495;-90
2023/12/08 07:26:00;;;;;;;77.55;36.28;;;1.60;99.90;;;;;;4957560;28;20415;-91
2023/12/08 07:28:26;;;;;;;74.30;36.85;;;1.50;99.90;;;;;;4957978;28;20791;-90
2023/12/08 07:30:51;;;;;;;78.78;36.85;;;1.50;99.90;;;;;;4957177;28;20408;-87
2023/12/08 07:33:17;;;;;;;70.43;35.30;;;1.50;99.90;;;;;;4973698;28;20404;-88
2023/12/08 07:35:42;;;;;;;77.40;37.63;;;1.50;99.90;;;;;;4957434;28;20486;-88
2023/12/08 07:38:08;;;;;;;76.40;37.20;;;1.70;99.90;;;;;;4957030;28;20408;-88
2023/12/08 07:40:34;;;;;;;75.40;37.63;;;1.50;99.90;;;;;;4974471;28;20454;-92
2023/12/08 07:42:59;;;;;;;79.10;38.53;;;1.50;99.90;;;;;;4957252;28;20400;-91
2023/12/08 07:45:25;;;;;;;77.87;37.53;;;1.50;99.90;;;;;;4957756;28;20419;-89
2023/12/08 07:47:51;;;;;;;73.37;36.63;;;1.50;99.90;;;;;;4973480;28;20422;-91
2023/12/08 07:50:17;;;;;;;77.17;36.60;;;1.60;99.90;;;;;;4973799;28;20471;-89
2023/12/08 07:52:42;;;;;;;74.80;36.10;;;1.50;99.90;;;;;;4957797;28;20522;-90
2023/12/08 07:55:09;;;;;;;75.28;36.88;;;1.70;99.90;;;;;;4957363;28;20426;-89
2023/12/08 07:57:35;;;;;;;68.35;34.72;;;1.60;99.90;;;;;;4951504;29;20433;-88
2023/12/08 08:00:01;;;;;;;80.93;37.88;;;1.60;99.90;;;;;;4937604;29;20409;-89
2023/12/08 08:02:26;;;;;;;77.68;36.08;;;1.60;99.90;;;;;;4938436;29;20501;-90
2023/12/08 08:04:52;;;;;;;73.35;36.67;;;1.60;99.90;;;;;;4937699;29;20953;-88
2023/12/08 08:07:18;;;;;;;77.32;37.05;;;1.60;99.90;;;;;;4954284;29;20421;-88
2023/12/08 08:09:44;;;;;;;75.77;37.43;;;1.60;99.90;;;;;;4935349;29;20434;-90
2023/12/08 08:12:09;;;;;;;71.47;35.50;;;1.60;99.90;;;;;;4935505;29;20419;-91
2023/12/08 08:14:35;;;;;;;71.13;35.80;;;1.60;99.90;;;;;;4935155;29;20453;-92
2023/12/08 08:17:03;;;;;;;77.40;36.88;;;1.70;99.90;;;;;;4934906;29;20522;-89
2023/12/08 08:19:29;;;;;;;74.20;36.03;;;1.60;99.90;;;;;;4935358;29;20496;-89
2023/12/08 08:21:55;;;;;;;71.77;35.80;;;1.60;99.90;;;;;;4934950;29;20572;-90
2023/12/08 08:24:20;;;;;;;67.85;34.97;;;1.70;99.90;;;;;;4935292;29;20433;-90
2023/12/08 08:26:47;;;;;;;65.85;34.60;;;1.60;99.90;;;;;;4934995;29;20761;-91
2023/12/08 08:29:13;;;;;;;69.40;36.38;;;1.70;99.90;;;;;;4934984;29;20441;-90
2023/12/08 08:31:39;;;;;;;71.80;35.55;;;1.70;99.90;;;;;;4934170;29;20414;-90
2023/12/08 08:34:05;;;;;;;65.47;34.72;;;1.70;99.90;;;;;;4935600;29;20738;-90
2023/12/08 08:36:31;;;;;;;69.57;35.00;;;1.70;99.90;;;;;;4951020;29;20794;-90
2023/12/08 08:38:57;;;;;;;66.67;34.67;;;1.70;99.90;;;;;;4933728;29;20925;-91
2023/12/08 08:41:23;;;;;;;72.33;36.03;;;1.70;99.90;;;;;;4953574;28;20922;-90
2023/12/08 08:43:50;;;;;;;76.15;36.60;;;1.40;99.90;;;;;;4952838;28;20424;-91
2023/12/08 08:46:16;;;;;;;70.82;35.88;;;1.70;99.90;;;;;;4954010;28;20438;-91
2023/12/08 08:48:42;;;;;;;70.72;35.60;;;1.70;99.90;;;;;;4953149;28;20443;-89
2023/12/08 08:51:08;;;;;;;66.10;34.33;;;2.00;99.90;;;;;;4953505;28;20436;-92
2023/12/08 08:53:34;;;;;;;67.10;33.42;;;1.90;99.90;;;;;;4954206;28;20416;-88
2023/12/08 08:56:01;;;;;;;69.45;35.95;;;1.80;99.90;;;;;;4947082;29;20977;-89
2023/12/08 08:58:27;;;;;;;68.53;36.08;;;1.80;99.90;;;;;;4934774;29;20410;-89
2023/12/08 09:00:53;;;;;;;68.60;35.28;;;1.80;99.90;;;;;;4957189;28;20412;-92
2023/12/08 09:03:18;;;;;;;64.70;34.50;;;1.80;99.90;;;;;;4953609;28;20416;-88
2023/12/08 09:05:44;;;;;;;65.88;34.72;;;2.00;99.90;;;;;;4953077;28;20435;-89
2023/12/08 09:08:10;;;;;;;69.28;35.92;;;2.00;99.90;;;;;;4934542;29;21134;-91
2023/12/08 09:10:36;;;;;;;67.60;35.28;;;1.90;99.90;;;;;;4949698;29;20438;-89
2023/12/08 09:13:02;;;;;;;65.57;34.05;;;1.90;99.90;;;;;;4934019;29;20480;-90
2023/12/08 09:15:28;;;;;;;65.22;33.90;;;1.90;99.90;;;;;;4936671;28;20418;-89
2023/12/08 09:17:54;;;;;;;68.65;35.10;;;2.00;99.90;;;;;;4951910;28;20442;-90
2023/12/08 09:20:20;;;;;;;67.95;35.85;;;1.80;99.90;;;;;;4933579;29;20430;-92
2023/12/08 09:22:46;;;;;;;76.25;36.95;;;1.90;99.90;;;;;;4945073;28;20412;-88
2023/12/08 09:25:12;;;;;;;70.32;36.75;;;1.90;99.90;;;;;;4961907;28;20421;-91
2023/12/08 09:27:38;;;;;;;72.65;35.63;;;1.90;99.90;;;;;;4933087;29;20406;-90
2023/12/08 09:30:05;;;;;;;72.55;36.30;;;1.90;99.90;;;;;;4933032;29;20493;-90
2023/12/08 09:32:31;;;;;;;77.57;38.40;;;1.90;99.90;;;;;;4951776;28;20603;-89
2023/12/08 09:34:56;;;;;;;72.80;37.50;;;1.90;99.90;;;;;;4952497;28;20448;-89
2023/12/08 09:37:22;;;;;;;75.50;37.10;;;1.90;99.90;;;;;;4944620;29;20429;-89
2023/12/08 09:39:48;;;;;;;73.25;36.90;;;2.00;99.90;;;;;;4949200;29;20492;-88
2023/12/08 09:42:32;;;;;;;77.88;37.30;;;2.00;99.90;;;;;;4933742;29;20505;-89
2023/12/08 09:44:58;;;;;;;70.15;35.90;;;2.00;99.90;;;;;;4932882;29;20465;-90
2023/12/08 09:47:27;;;;;;;72.95;36.90;;;2.00;99.90;;;;;;4932924;29;20436;-90
2023/12/08 09:49:55;;;;;;;74.65;37.08;;;2.00;99.90;;;;;;4933728;29;20521;-90
2023/12/08 09:52:21;;;;;;;82.00;36.95;;;2.00;99.90;;;;;;4940230;28;20887;-89
2023/12/08 09:54:48;;;;;;;74.53;37.00;;;2.10;99.90;;;;;;4968632;28;20496;-91
2023/12/08 09:57:15;;;;;;;66.50;35.22;;;2.00;99.90;;;;;;4951962;28;20491;-89
2023/12/08 09:59:42;;;;;;;61.90;34.17;;;2.10;99.90;;;;;;4952910;28;20419;-90
2023/12/08 10:02:08;;;;;;;69.95;35.72;;;2.10;99.90;;;;;;4952110;28;20423;-89
2023/12/08 10:04:35;;;;;;;64.93;35.28;;;2.20;99.90;;;;;;4951888;28;20408;-92
2023/12/08 10:07:06;;;;;;;62.47;34.37;;;2.40;99.90;;;;;;4952570;28;20464;-87
2023/12/08 10:09:32;;;;;;;66.05;33.92;;;2.20;99.90;;;;;;4951793;28;20803;-90
2023/12/08 10:11:58;;;;;;;68.57;35.28;;;2.20;99.90;;;;;;4952148;28;20416;-89
2023/12/08 10:14:25;;;;;;;65.25;34.40;;;2.20;99.90;;;;;;4952747;28;20418;-90
2023/12/08 10:16:52;;;;;;;73.50;35.70;;;2.40;99.90;;;;;;4942999;28;20419;-89
2023/12/08 10:19:20;;;;;;;64.93;34.65;;;2.30;99.90;;;;;;4951627;28;20420;-90
2023/12/08 10:21:59;;;;;;;68.20;36.33;;;2.30;99.90;;;;;;4952318;28;20416;-90
2023/12/08 10:24:33;;;;;;;69.55;35.63;;;2.30;99.90;;;;;;4968266;28;20432;-88
2023/12/08 10:27:02;;;;;;;71.72;36.65;;;2.30;99.90;;;;;;4964356;28;20443;-90
2023/12/08 10:29:31;;;;;;;69.88;36.60;;;2.40;99.90;;;;;;4952452;28;20523;-92
2023/12/08 10:32:01;;;;;;;74.32;35.95;;;2.30;99.90;;;;;;4938953;29;20422;-89
2023/12/08 10:34:27;;;;;;;68.72;36.10;;;2.40;99.90;;;;;;4937883;28;20431;-91
2023/12/08 10:36:57;;;;;;;74.80;36.50;;;2.30;99.90;;;;;;4948811;28;20412;-88
2023/12/08 10:39:24;;;;;;;72.70;37.58;;;2.40;99.90;;;;;;4931491;29;20414;-90
2023/12/08 10:41:51;;;;;;;74.10;37.40;;;2.30;99.90;;;;;;4949120;28;20972;-91
2023/12/08 10:44:23;;;;;;;70.55;36.90;;;2.40;99.90;;;;;;4938055;29;20413;-91
2023/12/08 10:46:49;;;;;;;71.57;36.00;;;2.40;99.90;;;;;;4940175;28;20527;-92
2023/12/08 10:49:19;;;;;;;76.57;38.78;;;2.50;99.90;;;;;;4947086;29;21027;-89
2023/12/08 10:51:49;;;;;;;77.78;38.92;;;2.50;99.90;;;;;;4931519;29;20425;-90
2023/12/08 10:54:16;;;;;;;73.07;37.10;;;2.50;99.90;;;;;;4930968;29;20491;-89
2023/12/08 10:56:45;;;;;;;83.00;39.20;;;2.60;99.90;;;;;;4946519;28;20427;-88
2023/12/08 10:59:16;;;;;;;76.10;39.40;;;2.60;99.90;;;;;;4939983;29;20927;-88
2023/12/08 11:01:42;;;;;;;75.90;38.20;;;2.60;99.90;;;;;;4937635;28;20419;-89
2023/12/08 11:04:12;;;;;;;78.97;40.15;;;2.60;99.90;;;;;;4947439;28;20448;-90
2023/12/08 11:06:46;;;;;;;78.53;38.92;;;2.70;99.90;;;;;;4931060;29;20493;-90
2023/12/08 11:09:15;;;;;;;78.17;39.63;;;2.60;99.90;;;;;;4949871;28;20440;-90
2023/12/08 11:11:51;;;;;;;87.13;41.60;;;2.80;99.90;;;;;;4936044;29;20442;-89
2023/12/08 11:14:47;;;;;;;87.10;42.20;;;2.70;99.90;;;;;;4941853;28;20405;-90
2023/12/08 11:17:35;;;;;;;80.57;39.67;;;2.70;99.90;;;;;;4940503;29;20422;-89
2023/12/08 11:20:01;;;;;;;93.97;43.28;;;2.70;99.90;;;;;;4939514;28;20413;-88
2023/12/08 11:22:27;;;;;;;95.78;42.00;;;2.70;99.90;;;;;;4946240;29;20414;-92
2023/12/08 11:24:56;;;;;;;89.10;42.80;;;2.70;99.90;;;;;;4931661;29;20421;-90
2023/12/08 11:27:40;;;;;;;86.45;40.75;;;2.70;99.90;;;;;;4965704;28;20437;-91
2023/12/08 11:30:15;;;;;;;89.28;40.95;;;2.80;99.90;;;;;;4933208;29;20429;-91
2023/12/08 11:32:55;;;;;;;85.10;40.25;;;2.70;99.90;;;;;;4943550;28;20404;-89
2023/12/08 11:35:21;;;;;;;89.18;41.20;;;2.70;99.90;;;;;;4939279;29;20425;-89
2023/12/08 11:37:47;;;;;;;94.55;43.28;;;2.60;99.90;;;;;;4937388;28;20417;-91
2023/12/08 11:40:13;;;;;;;85.70;40.17;;;2.80;99.90;;;;;;4948145;28;21050;-92
2023/12/08 11:42:42;;;;;;;81.70;39.03;;;2.80;99.90;;;;;;4947504;28;20457;-91
2023/12/08 11:45:10;;;;;;;95.60;41.53;;;2.90;99.90;;;;;;4950430;28;20414;-89
2023/12/08 11:47:35;;;;;;;92.40;41.60;;;2.80;99.90;;;;;;4941595;29;20773;-89
2023/12/08 11:50:03;;;;;;;86.40;39.73;;;2.80;99.90;;;;;;4936611;29;20438;-89
2023/12/08 11:52:34;;;;;;;93.00;41.03;;;2.80;99.90;;;;;;4937605;28;20496;-89
2023/12/08 11:55:20;;;;;;;90.57;40.60;;;2.90;99.90;;;;;;4954574;28;20772;-91
2023/12/08 11:57:54;;;;;;;92.47;40.83;;;2.90;99.90;;;;;;4934437;29;20445;-92
2023/12/08 12:00:22;;;;;;;87.50;40.58;;;2.90;99.90;;;;;;4952222;28;20789;-93
2023/12/08 12:02:49;;;;;;;87.47;41.27;;;2.90;99.90;;;;;;4956255;28;20567;-90
2023/12/08 12:05:15;;;;;;;96.97;41.00;;;2.70;99.90;;;;;;4943342;28;20901;-89
2023/12/08 12:07:47;;;;;;;92.78;41.20;;;2.90;99.90;;;;;;4949003;29;20429;-90
2023/12/08 12:10:13;;;;;;;87.88;39.67;;;2.90;99.90;;;;;;4949915;29;20536;-91
2023/12/08 12:12:48;;;;;;;88.33;41.13;;;2.90;99.90;;;;;;4934245;29;20410;-89
2023/12/08 12:15:16;;;;;;;81.50;39.10;;;2.90;99.90;;;;;;4946681;29;20505;-90
2023/12/08 12:17:42;;;;;;;89.68;41.58;;;2.90;99.90;;;;;;4953955;28;20423;-89
2023/12/08 12:20:08;;;;;;;80.87;39.67;;;2.90;99.90;;;;;;4946049;29;20435;-90
2023/12/08 12:22:34;;;;;;;81.00;39.40;;;3.00;99.90;;;;;;4936381;28;20418;-90
2023/12/08 12:24:59;;;;;;;89.17;40.40;;;3.00;99.90;;;;;;4953669;28;20528;-89
2023/12/08 12:27:25;;;;;;;91.88;40.95;;;3.00;99.90;;;;;;4935699;29;20426;-89
2023/12/08 12:29:51;;;;;;;90.67;41.90;;;3.00;99.90;;;;;;4946380;28;20940;-90
2023/12/08 12:32:16;;;;;;;86.03;40.30;;;3.10;99.90;;;;;;4944897;29;20422;-88
2023/12/08 12:34:42;;;;;;;89.67;42.20;;;3.10;99.90;;;;;;4936957;28;20820;-89
2023/12/08 12:37:08;;;;;;;93.65;42.85;;;3.10;99.90;;;;;;4968725;28;20424;-90
2023/12/08 12:39:34;;;;;;;95.25;45.08;;;3.10;99.90;;;;;;4935585;29;20406;-89
2023/12/08 12:42:06;;;;;;;94.70;44.07;;;3.20;99.90;;;;;;4946345;28;20412;-90